sensor_id;sensor_type;location;lat;lon;timestamp;temperature;humidity
24448;DHT22;13348;50.984;5.822;2024-02-23T00:00:29;5.70;99.90
24448;DHT22;13348;50.984;5.822;2024-02-23T00:02:56;5.70;99.90
24448;DHT22;13348;50.984;5.822;2024-02-23T00:05:23;5.80;99.90
24448;DHT22;13348;50.984;5.822;2024-02-23T00:07:51;5.80;99.90
24448;DHT22;13348;50.984;5.822;2024-02-23T00:10:18;5.80;99.90
24448;DHT22;13348;50.984;5.822;2024-02-23T00:12:45;5.80;99.90
24448;DHT22;13348;50.984;5.822;2024-02-23T00:15:13;5.70;99.90
24448;DHT22;13348;50.984;5.822;2024-02-23T00:17:39;5.70;99.90
24448;DHT22;13348;50.984;5.822;2024-02-23T00:20:08;5.60;99.90
24448;DHT22;13348;50.984;5.822;2024-02-23T00:22:36;5.60;99.90
24448;DHT22;13348;50.984;5.822;2024-02-23T00:25:05;5.60;99.90
24448;DHT22;13348;50.984;5.822;2024-02-23T00:27:32;5.50;99.90
24448;DHT22;13348;50.984;5.822;2024-02-23T00:29:59;5.40;99.90
24448;DHT22;13348;50.984;5.822;2024-02-23T00:32:25;5.40;99.90
24448;DHT22;13348;50.984;5.822;2024-02-23T00:34:52;5.30;99.90
24448;DHT22;13348;50.984;5.822;2024-02-23T00:37:19;5.30;99.90
24448;DHT22;13348;50.984;5.822;2024-02-23T00:39:46;5.40;99.90
24448;DHT22;13348;50.984;5.822;2024-02-23T00:42:15;5.40;99.90
24448;DHT22;13348;50.984;5.822;2024-02-23T00:44:42;5.50;99.90
24448;DHT22;13348;50.984;5.822;2024-02-23T00:47:09;5.40;99.90
24448;DHT22;13348;50.984;5.822;2024-02-23T00:49:36;5.40;99.90
24448;DHT22;13348;50.984;5.822;2024-02-23T00:52:03;5.40;99.90
24448;DHT22;13348;50.984;5.822;2024-02-23T00:54:30;5.40;99.90
24448;DHT22;13348;50.984;5.822;2024-02-23T00:56:57;5.40;99.90
24448;DHT22;13348;50.984;5.822;2024-02-23T00:59:25;5.50;99.90
24448;DHT22;13348;50.984;5.822;2024-02-23T01:01:53;5.40;99.90
24448;DHT22;13348;50.984;5.822;2024-02-23T01:04:20;5.40;99.90
24448;DHT22;13348;50.984;5.822;2024-02-23T01:06:47;5.40;99.90
24448;DHT22;13348;50.984;5.822;2024-02-23T01:09:14;5.30;99.90
24448;DHT22;13348;50.984;5.822;2024-02-23T01:11:45;5.20;99.90
24448;DHT22;13348;50.984;5.822;2024-02-23T01:14:12;5.20;99.90
24448;DHT22;13348;50.984;5.822;2024-02-23T01:16:41;5.10;99.90
24448;DHT22;13348;50.984;5.822;2024-02-23T01:19:08;5.10;99.90
24448;DHT22;13348;50.984;5.822;2024-02-23T01:21:34;5.10;99.90
24448;DHT22;13348;50.984;5.822;2024-02-23T01:24:01;5.10;99.90
24448;DHT22;13348;50.984;5.822;2024-02-23T01:26:29;5.20;99.90
24448;DHT22;13348;50.984;5.822;2024-02-23T01:28:56;5.10;99.90
24448;DHT22;13348;50.984;5.822;2024-02-23T01:31:23;5.10;99.90
24448;DHT22;13348;50.984;5.822;2024-02-23T01:33:52;5.10;99.90
24448;DHT22;13348;50.984;5.822;2024-02-23T01:36:19;5.20;99.90
24448;DHT22;13348;50.984;5.822;2024-02-23T01:38:45;5.20;99.90
24448;DHT22;13348;50.984;5.822;2024-02-23T01:41:12;5.20;99.90
24448;DHT22;13348;50.984;5.822;2024-02-23T01:43:39;5.10;99.90
24448;DHT22;13348;50.984;5.822;2024-02-23T01:46:06;5.10;99.90
24448;DHT22;13348;50.984;5.822;2024-02-23T01:48:33;5.20;99.90
24448;DHT22;13348;50.984;5.822;2024-02-23T01:51:02;5.10;99.90
24448;DHT22;13348;50.984;5.822;2024-02-23T01:53:29;5.10;99.90
24448;DHT22;13348;50.984;5.822;2024-02-23T01:55:56;5.00;99.90
24448;DHT22;13348;50.984;5.822;2024-02-23T01:58:24;5.00;99.90
24448;DHT22;13348;50.984;5.822;2024-02-23T02:00:51;5.00;99.90
24448;DHT22;13348;50.984;5.822;2024-02-23T02:03:18;5.10;99.90
24448;DHT22;13348;50.984;5.822;2024-02-23T02:05:45;5.10;99.90
24448;DHT22;13348;50.984;5.822;2024-02-23T02:08:14;5.10;99.90
24448;DHT22;13348;50.984;5.822;2024-02-23T02:10:41;5.20;99.90
24448;DHT22;13348;50.984;5.822;2024-02-23T02:13:09;5.20;99.90
24448;DHT22;13348;50.984;5.822;2024-02-23T02:15:36;5.30;99.90
24448;DHT22;13348;50.984;5.822;2024-02-23T02:18:04;5.30;99.90
24448;DHT22;13348;50.984;5.822;2024-02-23T02:20:32;5.30;99.90
24448;DHT22;13348;50.984;5.822;2024-02-23T02:22:59;5.30;99.90
24448;DHT22;13348;50.984;5.822;2024-02-23T02:25:27;5.30;99.90
24448;DHT22;13348;50.984;5.822;2024-02-23T02:27:54;5.50;99.90
24448;DHT22;13348;50.984;5.822;2024-02-23T02:30:21;5.40;99.90
24448;DHT22;13348;50.984;5.822;2024-02-23T02:32:48;5.50;99.90
24448;DHT22;13348;50.984;5.822;2024-02-23T02:35:15;5.40;99.90
24448;DHT22;13348;50.984;5.822;2024-02-23T02:37:42;5.50;99.90
24448;DHT22;13348;50.984;5.822;2024-02-23T02:40:09;5.60;99.90
24448;DHT22;13348;50.984;5.822;2024-02-23T02:42:37;5.50;99.90
24448;DHT22;13348;50.984;5.822;2024-02-23T02:45:04;5.50;99.90
24448;DHT22;13348;50.984;5.822;2024-02-23T02:47:31;5.50;99.90
24448;DHT22;13348;50.984;5.822;2024-02-23T02:49:58;5.40;99.90
24448;DHT22;13348;50.984;5.822;2024-02-23T02:52:25;5.40;99.90
24448;DHT22;13348;50.984;5.822;2024-02-23T02:54:54;5.50;99.90
24448;DHT22;13348;50.984;5.822;2024-02-23T02:57:20;5.50;99.90
24448;DHT22;13348;50.984;5.822;2024-02-23T02:59:49;5.50;99.90
24448;DHT22;13348;50.984;5.822;2024-02-23T03:02:16;5.50;99.90
24448;DHT22;13348;50.984;5.822;2024-02-23T03:04:46;5.50;99.90
24448;DHT22;13348;50.984;5.822;2024-02-23T03:07:13;5.50;99.90
24448;DHT22;13348;50.984;5.822;2024-02-23T03:09:40;5.60;99.90
24448;DHT22;13348;50.984;5.822;2024-02-23T03:12:07;5.60;99.90
24448;DHT22;13348;50.984;5.822;2024-02-23T03:14:34;5.50;99.90
24448;DHT22;13348;50.984;5.822;2024-02-23T03:17:04;5.50;99.90
24448;DHT22;13348;50.984;5.822;2024-02-23T03:19:31;5.50;99.90
24448;DHT22;13348;50.984;5.822;2024-02-23T03:21:58;5.50;99.90
24448;DHT22;13348;50.984;5.822;2024-02-23T03:24:25;5.50;99.90
24448;DHT22;13348;50.984;5.822;2024-02-23T03:26:52;5.50;99.90
24448;DHT22;13348;50.984;5.822;2024-02-23T03:29:19;5.40;99.90
24448;DHT22;13348;50.984;5.822;2024-02-23T03:31:47;5.40;99.90
24448;DHT22;13348;50.984;5.822;2024-02-23T03:34:15;5.40;99.90
24448;DHT22;13348;50.984;5.822;2024-02-23T03:36:42;5.50;99.90
24448;DHT22;13348;50.984;5.822;2024-02-23T03:39:09;5.50;99.90
24448;DHT22;13348;50.984;5.822;2024-02-23T03:41:37;5.60;99.90
24448;DHT22;13348;50.984;5.822;2024-02-23T03:44:04;5.60;99.90
24448;DHT22;13348;50.984;5.822;2024-02-23T03:46:31;5.60;99.90
24448;DHT22;13348;50.984;5.822;2024-02-23T03:48:58;5.70;99.90
24448;DHT22;13348;50.984;5.822;2024-02-23T03:51:27;5.70;99.90
24448;DHT22;13348;50.984;5.822;2024-02-23T03:53:54;5.70;99.90
24448;DHT22;13348;50.984;5.822;2024-02-23T03:56:21;5.70;99.90
24448;DHT22;13348;50.984;5.822;2024-02-23T03:58:48;5.70;99.90
24448;DHT22;13348;50.984;5.822;2024-02-23T04:01:15;5.70;99.90
24448;DHT22;13348;50.984;5.822;2024-02-23T04:03:42;5.70;99.90
24448;DHT22;13348;50.984;5.822;2024-02-23T04:06:09;5.70;99.90
24448;DHT22;13348;50.984;5.822;2024-02-23T04:08:37;5.80;99.90
24448;DHT22;13348;50.984;5.822;2024-02-23T04:11:06;5.70;99.90
24448;DHT22;13348;50.984;5.822;2024-02-23T04:13:33;5.70;99.90
24448;DHT22;13348;50.984;5.822;2024-02-23T04:16:00;5.70;99.90
24448;DHT22;13348;50.984;5.822;2024-02-23T04:18:28;5.60;99.90
24448;DHT22;13348;50.984;5.822;2024-02-23T04:20:55;5.70;99.90
24448;DHT22;13348;50.984;5.822;2024-02-23T04:23:22;5.70;99.90
24448;DHT22;13348;50.984;5.822;2024-02-23T04:25:50;5.80;99.90
24448;DHT22;13348;50.984;5.822;2024-02-23T04:28:17;5.80;99.90
24448;DHT22;13348;50.984;5.822;2024-02-23T04:30:44;5.80;99.90
24448;DHT22;13348;50.984;5.822;2024-02-23T04:33:11;5.80;99.90
24448;DHT22;13348;50.984;5.822;2024-02-23T04:35:38;5.80;99.90
24448;DHT22;13348;50.984;5.822;2024-02-23T04:38:05;5.90;99.90
24448;DHT22;13348;50.984;5.822;2024-02-23T04:40:32;5.90;99.90
24448;DHT22;13348;50.984;5.822;2024-02-23T04:43:00;5.90;99.90
24448;DHT22;13348;50.984;5.822;2024-02-23T04:45:28;5.90;99.90
24448;DHT22;13348;50.984;5.822;2024-02-23T04:47:55;5.90;99.90
24448;DHT22;13348;50.984;5.822;2024-02-23T04:50:22;5.90;99.90
24448;DHT22;13348;50.984;5.822;2024-02-23T04:52:49;5.80;99.90
24448;DHT22;13348;50.984;5.822;2024-02-23T04:55:16;5.80;99.90
24448;DHT22;13348;50.984;5.822;2024-02-23T04:57:43;5.80;99.90
24448;DHT22;13348;50.984;5.822;2024-02-23T05:00:12;5.80;99.90
24448;DHT22;13348;50.984;5.822;2024-02-23T05:02:39;5.80;99.90
24448;DHT22;13348;50.984;5.822;2024-02-23T05:05:06;5.80;99.90
24448;DHT22;13348;50.984;5.822;2024-02-23T05:07:33;5.80;99.90
24448;DHT22;13348;50.984;5.822;2024-02-23T05:10:00;5.90;99.90
24448;DHT22;13348;50.984;5.822;2024-02-23T05:12:27;5.90;99.90
24448;DHT22;13348;50.984;5.822;2024-02-23T05:14:54;5.90;99.90
24448;DHT22;13348;50.984;5.822;2024-02-23T05:17:23;5.90;99.90
24448;DHT22;13348;50.984;5.822;2024-02-23T05:19:49;5.90;99.90
24448;DHT22;13348;50.984;5.822;2024-02-23T05:22:16;5.90;99.90
24448;DHT22;13348;50.984;5.822;2024-02-23T05:24:44;5.90;99.90
24448;DHT22;13348;50.984;5.822;2024-02-23T05:27:11;5.90;99.90
24448;DHT22;13348;50.984;5.822;2024-02-23T05:29:38;5.90;99.90
24448;DHT22;13348;50.984;5.822;2024-02-23T05:32:05;5.90;99.90
24448;DHT22;13348;50.984;5.822;2024-02-23T05:34:33;5.90;99.90
24448;DHT22;13348;50.984;5.822;2024-02-23T05:37:01;6.00;99.90
24448;DHT22;13348;50.984;5.822;2024-02-23T05:39:28;6.00;99.90
24448;DHT22;13348;50.984;5.822;2024-02-23T05:41:55;6.00;99.90
24448;DHT22;13348;50.984;5.822;2024-02-23T05:44:24;5.90;99.90
24448;DHT22;13348;50.984;5.822;2024-02-23T05:46:52;5.90;99.90
24448;DHT22;13348;50.984;5.822;2024-02-23T05:49:19;5.90;99.90
24448;DHT22;13348;50.984;5.822;2024-02-23T05:51:47;5.90;99.90
24448;DHT22;13348;50.984;5.822;2024-02-23T05:54:14;5.90;99.90
24448;DHT22;13348;50.984;5.822;2024-02-23T05:56:41;5.90;99.90
24448;DHT22;13348;50.984;5.822;2024-02-23T05:59:08;5.80;99.90
24448;DHT22;13348;50.984;5.822;2024-02-23T06:01:35;5.80;99.90
24448;DHT22;13348;50.984;5.822;2024-02-23T06:04:02;5.90;99.90
24448;DHT22;13348;50.984;5.822;2024-02-23T06:06:29;5.90;99.90
24448;DHT22;13348;50.984;5.822;2024-02-23T06:08:58;5.90;99.90
24448;DHT22;13348;50.984;5.822;2024-02-23T06:11:25;5.90;99.90
24448;DHT22;13348;50.984;5.822;2024-02-23T06:13:52;5.90;99.90
24448;DHT22;13348;50.984;5.822;2024-02-23T06:16:19;5.90;99.90
24448;DHT22;13348;50.984;5.822;2024-02-23T06:18:46;5.90;99.90
24448;DHT22;13348;50.984;5.822;2024-02-23T06:21:14;5.90;99.90
24448;DHT22;13348;50.984;5.822;2024-02-23T06:23:41;5.90;99.90
24448;DHT22;13348;50.984;5.822;2024-02-23T06:26:10;5.90;99.90
24448;DHT22;13348;50.984;5.822;2024-02-23T06:28:37;5.90;99.90
24448;DHT22;13348;50.984;5.822;2024-02-23T06:31:07;5.90;99.90
24448;DHT22;13348;50.984;5.822;2024-02-23T06:33:34;5.90;99.90
24448;DHT22;13348;50.984;5.822;2024-02-23T06:36:01;6.00;99.90
24448;DHT22;13348;50.984;5.822;2024-02-23T06:38:28;6.00;99.90
24448;DHT22;13348;50.984;5.822;2024-02-23T06:40:55;6.00;99.90
24448;DHT22;13348;50.984;5.822;2024-02-23T06:43:24;6.00;99.90
24448;DHT22;13348;50.984;5.822;2024-02-23T06:45:51;6.00;99.90
24448;DHT22;13348;50.984;5.822;2024-02-23T06:48:18;5.90;99.90
24448;DHT22;13348;50.984;5.822;2024-02-23T06:50:45;6.00;99.90
24448;DHT22;13348;50.984;5.822;2024-02-23T06:53:12;5.90;99.90
24448;DHT22;13348;50.984;5.822;2024-02-23T06:55:39;5.80;99.90
24448;DHT22;13348;50.984;5.822;2024-02-23T06:58:07;5.90;99.90
24448;DHT22;13348;50.984;5.822;2024-02-23T07:00:37;5.90;99.90
24448;DHT22;13348;50.984;5.822;2024-02-23T07:03:04;5.90;99.90
24448;DHT22;13348;50.984;5.822;2024-02-23T07:05:31;5.90;99.90
24448;DHT22;13348;50.984;5.822;2024-02-23T07:08:00;5.90;99.90
24448;DHT22;13348;50.984;5.822;2024-02-23T07:10:28;5.80;99.90
24448;DHT22;13348;50.984;5.822;2024-02-23T07:12:55;5.80;99.90
24448;DHT22;13348;50.984;5.822;2024-02-23T07:15:23;5.80;99.90
24448;DHT22;13348;50.984;5.822;2024-02-23T07:17:52;5.70;99.90
24448;DHT22;13348;50.984;5.822;2024-02-23T07:20:19;5.80;99.90
24448;DHT22;13348;50.984;5.822;2024-02-23T07:22:46;5.80;99.90
24448;DHT22;13348;50.984;5.822;2024-02-23T07:25:15;5.70;99.90
24448;DHT22;13348;50.984;5.822;2024-02-23T07:27:42;5.70;99.90
24448;DHT22;13348;50.984;5.822;2024-02-23T07:30:10;5.70;99.90
24448;DHT22;13348;50.984;5.822;2024-02-23T07:32:37;5.70;99.90
24448;DHT22;13348;50.984;5.822;2024-02-23T07:35:06;5.70;99.90
24448;DHT22;13348;50.984;5.822;2024-02-23T07:37:33;5.70;99.90
24448;DHT22;13348;50.984;5.822;2024-02-23T07:40:00;5.70;99.90
24448;DHT22;13348;50.984;5.822;2024-02-23T07:42:28;5.70;99.90
24448;DHT22;13348;50.984;5.822;2024-02-23T07:44:55;5.80;99.90
24448;DHT22;13348;50.984;5.822;2024-02-23T07:47:23;5.80;99.90
24448;DHT22;13348;50.984;5.822;2024-02-23T07:49:52;5.80;99.90
24448;DHT22;13348;50.984;5.822;2024-02-23T07:52:20;5.80;99.90
24448;DHT22;13348;50.984;5.822;2024-02-23T07:54:49;5.90;99.90
24448;DHT22;13348;50.984;5.822;2024-02-23T07:57:17;5.90;99.90
24448;DHT22;13348;50.984;5.822;2024-02-23T07:59:44;5.90;99.90
24448;DHT22;13348;50.984;5.822;2024-02-23T08:02:11;6.00;99.90
24448;DHT22;13348;50.984;5.822;2024-02-23T08:04:38;6.10;99.90
24448;DHT22;13348;50.984;5.822;2024-02-23T08:07:05;6.20;99.90
24448;DHT22;13348;50.984;5.822;2024-02-23T08:09:34;6.50;99.90
24448;DHT22;13348;50.984;5.822;2024-02-23T08:12:01;6.70;99.90
24448;DHT22;13348;50.984;5.822;2024-02-23T08:14:28;6.50;99.90
24448;DHT22;13348;50.984;5.822;2024-02-23T08:16:55;6.50;99.90
24448;DHT22;13348;50.984;5.822;2024-02-23T08:19:22;6.50;99.90
24448;DHT22;13348;50.984;5.822;2024-02-23T08:21:49;6.80;99.90
24448;DHT22;13348;50.984;5.822;2024-02-23T08:24:16;6.70;99.90
24448;DHT22;13348;50.984;5.822;2024-02-23T08:26:44;6.70;99.90
24448;DHT22;13348;50.984;5.822;2024-02-23T08:29:11;6.80;99.90
24448;DHT22;13348;50.984;5.822;2024-02-23T08:31:38;6.90;99.90
24448;DHT22;13348;50.984;5.822;2024-02-23T08:34:05;7.10;99.90
24448;DHT22;13348;50.984;5.822;2024-02-23T08:36:32;7.00;99.90
24448;DHT22;13348;50.984;5.822;2024-02-23T08:38:59;7.10;99.90
24448;DHT22;13348;50.984;5.822;2024-02-23T08:41:26;7.20;99.90
24448;DHT22;13348;50.984;5.822;2024-02-23T08:43:55;7.10;99.90
24448;DHT22;13348;50.984;5.822;2024-02-23T08:46:22;7.10;99.90
24448;DHT22;13348;50.984;5.822;2024-02-23T08:48:49;7.40;99.90
24448;DHT22;13348;50.984;5.822;2024-02-23T08:51:16;7.40;99.90
24448;DHT22;13348;50.984;5.822;2024-02-23T08:53:43;7.50;99.90
24448;DHT22;13348;50.984;5.822;2024-02-23T08:56:11;7.50;99.90
24448;DHT22;13348;50.984;5.822;2024-02-23T08:58:38;7.60;99.90
24448;DHT22;13348;50.984;5.822;2024-02-23T09:01:06;7.50;99.90
24448;DHT22;13348;50.984;5.822;2024-02-23T09:03:34;7.50;99.90
24448;DHT22;13348;50.984;5.822;2024-02-23T09:06:02;7.70;99.90
24448;DHT22;13348;50.984;5.822;2024-02-23T09:08:29;7.70;99.90
24448;DHT22;13348;50.984;5.822;2024-02-23T09:10:56;7.80;99.90
24448;DHT22;13348;50.984;5.822;2024-02-23T09:13:23;7.80;99.90
24448;DHT22;13348;50.984;5.822;2024-02-23T09:15:52;8.00;99.90
24448;DHT22;13348;50.984;5.822;2024-02-23T09:18:20;8.10;99.90
24448;DHT22;13348;50.984;5.822;2024-02-23T09:20:47;8.00;99.90
24448;DHT22;13348;50.984;5.822;2024-02-23T09:23:14;8.30;99.90
24448;DHT22;13348;50.984;5.822;2024-02-23T09:25:41;8.20;99.90
24448;DHT22;13348;50.984;5.822;2024-02-23T09:28:08;8.30;99.90
24448;DHT22;13348;50.984;5.822;2024-02-23T09:30:37;8.20;99.90
24448;DHT22;13348;50.984;5.822;2024-02-23T09:33:04;8.00;99.90
24448;DHT22;13348;50.984;5.822;2024-02-23T09:35:33;7.90;99.90
24448;DHT22;13348;50.984;5.822;2024-02-23T09:38:00;7.60;99.90
24448;DHT22;13348;50.984;5.822;2024-02-23T09:40:28;7.60;99.90
24448;DHT22;13348;50.984;5.822;2024-02-23T09:42:55;7.70;99.90
24448;DHT22;13348;50.984;5.822;2024-02-23T09:45:23;7.80;99.90
24448;DHT22;13348;50.984;5.822;2024-02-23T09:47:50;7.90;99.90
24448;DHT22;13348;50.984;5.822;2024-02-23T09:50:18;7.90;99.90
24448;DHT22;13348;50.984;5.822;2024-02-23T09:52:48;8.10;99.90
24448;DHT22;13348;50.984;5.822;2024-02-23T09:55:16;8.50;99.90
24448;DHT22;13348;50.984;5.822;2024-02-23T09:57:44;8.60;99.90
24448;DHT22;13348;50.984;5.822;2024-02-23T10:00:12;8.30;99.90
24448;DHT22;13348;50.984;5.822;2024-02-23T10:02:39;8.50;99.90
24448;DHT22;13348;50.984;5.822;2024-02-23T10:05:06;8.90;99.90
24448;DHT22;13348;50.984;5.822;2024-02-23T10:07:33;8.60;99.90
24448;DHT22;13348;50.984;5.822;2024-02-23T10:10:02;8.50;99.90
24448;DHT22;13348;50.984;5.822;2024-02-23T10:12:29;8.70;99.90
24448;DHT22;13348;50.984;5.822;2024-02-23T10:14:56;8.80;99.90
24448;DHT22;13348;50.984;5.822;2024-02-23T10:17:23;8.60;99.90
24448;DHT22;13348;50.984;5.822;2024-02-23T10:19:50;9.30;99.90
24448;DHT22;13348;50.984;5.822;2024-02-23T10:22:17;9.20;99.90
24448;DHT22;13348;50.984;5.822;2024-02-23T10:24:46;9.50;99.90
24448;DHT22;13348;50.984;5.822;2024-02-23T10:27:14;9.40;99.90
24448;DHT22;13348;50.984;5.822;2024-02-23T10:29:41;9.40;99.90
24448;DHT22;13348;50.984;5.822;2024-02-23T10:32:08;9.60;99.90
24448;DHT22;13348;50.984;5.822;2024-02-23T10:34:36;9.20;99.90
24448;DHT22;13348;50.984;5.822;2024-02-23T10:37:05;9.60;99.90
24448;DHT22;13348;50.984;5.822;2024-02-23T10:39:33;9.90;99.90
24448;DHT22;13348;50.984;5.822;2024-02-23T10:42:03;10.00;99.90
24448;DHT22;13348;50.984;5.822;2024-02-23T10:44:32;9.40;99.90
24448;DHT22;13348;50.984;5.822;2024-02-23T10:46:59;9.30;99.90
24448;DHT22;13348;50.984;5.822;2024-02-23T10:49:27;9.30;99.90
24448;DHT22;13348;50.984;5.822;2024-02-23T10:51:54;9.50;99.90
24448;DHT22;13348;50.984;5.822;2024-02-23T10:54:21;9.30;99.90
24448;DHT22;13348;50.984;5.822;2024-02-23T10:56:49;9.60;99.90
24448;DHT22;13348;50.984;5.822;2024-02-23T10:59:16;9.30;99.90
24448;DHT22;13348;50.984;5.822;2024-02-23T11:01:46;9.10;99.90
24448;DHT22;13348;50.984;5.822;2024-02-23T11:04:14;9.30;99.90
24448;DHT22;13348;50.984;5.822;2024-02-23T11:06:42;8.90;99.90
24448;DHT22;13348;50.984;5.822;2024-02-23T11:09:12;8.70;99.90
24448;DHT22;13348;50.984;5.822;2024-02-23T11:11:39;8.70;99.90
24448;DHT22;13348;50.984;5.822;2024-02-23T11:14:07;8.70;99.90
24448;DHT22;13348;50.984;5.822;2024-02-23T11:16:34;8.60;99.90
24448;DHT22;13348;50.984;5.822;2024-02-23T11:19:06;8.50;99.90
24448;DHT22;13348;50.984;5.822;2024-02-23T11:21:38;8.80;99.90
24448;DHT22;13348;50.984;5.822;2024-02-23T11:24:05;8.80;99.90
24448;DHT22;13348;50.984;5.822;2024-02-23T11:26:32;8.70;99.90
24448;DHT22;13348;50.984;5.822;2024-02-23T11:29:09;8.70;99.90
24448;DHT22;13348;50.984;5.822;2024-02-23T11:31:36;8.70;99.90
24448;DHT22;13348;50.984;5.822;2024-02-23T11:34:07;8.40;99.90
24448;DHT22;13348;50.984;5.822;2024-02-23T11:36:37;8.30;99.90
24448;DHT22;13348;50.984;5.822;2024-02-23T11:39:05;8.30;99.90
24448;DHT22;13348;50.984;5.822;2024-02-23T11:41:32;8.10;99.90
24448;DHT22;13348;50.984;5.822;2024-02-23T11:43:59;8.10;99.90
24448;DHT22;13348;50.984;5.822;2024-02-23T11:46:26;8.20;99.90
24448;DHT22;13348;50.984;5.822;2024-02-23T11:48:53;8.30;99.90
24448;DHT22;13348;50.984;5.822;2024-02-23T11:51:20;8.50;99.90
24448;DHT22;13348;50.984;5.822;2024-02-23T11:53:49;8.90;99.90
24448;DHT22;13348;50.984;5.822;2024-02-23T11:56:16;9.10;99.90
24448;DHT22;13348;50.984;5.822;2024-02-23T11:58:44;9.30;99.90
24448;DHT22;13348;50.984;5.822;2024-02-23T12:01:11;9.30;99.90
24448;DHT22;13348;50.984;5.822;2024-02-23T12:03:38;9.30;99.90
24448;DHT22;13348;50.984;5.822;2024-02-23T12:06:05;9.80;99.90
24448;DHT22;13348;50.984;5.822;2024-02-23T12:08:33;10.40;99.90
24448;DHT22;13348;50.984;5.822;2024-02-23T12:11:05;9.90;99.90
24448;DHT22;13348;50.984;5.822;2024-02-23T12:13:34;10.70;99.90
24448;DHT22;13348;50.984;5.822;2024-02-23T12:16:01;11.40;99.90
24448;DHT22;13348;50.984;5.822;2024-02-23T12:18:28;11.40;99.90
24448;DHT22;13348;50.984;5.822;2024-02-23T12:20:59;11.40;99.90
24448;DHT22;13348;50.984;5.822;2024-02-23T12:23:26;11.00;99.90
24448;DHT22;13348;50.984;5.822;2024-02-23T12:25:53;10.70;99.90
24448;DHT22;13348;50.984;5.822;2024-02-23T12:28:22;10.20;99.90
24448;DHT22;13348;50.984;5.822;2024-02-23T12:30:58;10.20;99.90
24448;DHT22;13348;50.984;5.822;2024-02-23T12:33:26;10.50;99.90
24448;DHT22;13348;50.984;5.822;2024-02-23T12:35:53;11.00;99.90
24448;DHT22;13348;50.984;5.822;2024-02-23T12:38:21;12.00;99.90
24448;DHT22;13348;50.984;5.822;2024-02-23T12:40:48;11.80;99.90
24448;DHT22;13348;50.984;5.822;2024-02-23T12:43:15;11.30;99.90
24448;DHT22;13348;50.984;5.822;2024-02-23T12:45:45;10.50;99.90
24448;DHT22;13348;50.984;5.822;2024-02-23T12:48:14;10.40;99.90
24448;DHT22;13348;50.984;5.822;2024-02-23T12:50:41;10.50;99.90
24448;DHT22;13348;50.984;5.822;2024-02-23T12:53:08;10.20;99.90
24448;DHT22;13348;50.984;5.822;2024-02-23T12:55:36;10.00;99.90
24448;DHT22;13348;50.984;5.822;2024-02-23T12:58:03;10.20;99.90
24448;DHT22;13348;50.984;5.822;2024-02-23T13:00:30;10.50;99.90
24448;DHT22;13348;50.984;5.822;2024-02-23T13:02:59;10.50;99.90
24448;DHT22;13348;50.984;5.822;2024-02-23T13:05:26;10.30;99.90
24448;DHT22;13348;50.984;5.822;2024-02-23T13:07:52;10.30;99.90
24448;DHT22;13348;50.984;5.822;2024-02-23T13:10:20;10.00;99.90
24448;DHT22;13348;50.984;5.822;2024-02-23T13:12:47;10.30;99.90
24448;DHT22;13348;50.984;5.822;2024-02-23T13:15:15;10.70;99.90
24448;DHT22;13348;50.984;5.822;2024-02-23T13:17:42;11.40;99.90
24448;DHT22;13348;50.984;5.822;2024-02-23T13:20:11;11.50;99.90
24448;DHT22;13348;50.984;5.822;2024-02-23T13:22:39;11.50;99.90
24448;DHT22;13348;50.984;5.822;2024-02-23T13:25:07;11.30;99.90
24448;DHT22;13348;50.984;5.822;2024-02-23T13:27:34;11.30;99.90
24448;DHT22;13348;50.984;5.822;2024-02-23T13:30:02;11.60;99.90
24448;DHT22;13348;50.984;5.822;2024-02-23T13:32:29;11.70;99.90
24448;DHT22;13348;50.984;5.822;2024-02-23T13:34:56;11.70;99.90
24448;DHT22;13348;50.984;5.822;2024-02-23T13:37:24;11.20;99.90
24448;DHT22;13348;50.984;5.822;2024-02-23T13:39:51;11.20;99.90
24448;DHT22;13348;50.984;5.822;2024-02-23T13:42:18;11.60;99.90
24448;DHT22;13348;50.984;5.822;2024-02-23T13:44:45;10.50;99.90
24448;DHT22;13348;50.984;5.822;2024-02-23T13:47:13;10.50;99.90
24448;DHT22;13348;50.984;5.822;2024-02-23T13:49:40;10.60;99.90
24448;DHT22;13348;50.984;5.822;2024-02-23T13:52:06;10.70;99.90
24448;DHT22;13348;50.984;5.822;2024-02-23T13:54:35;10.40;99.90
24448;DHT22;13348;50.984;5.822;2024-02-23T13:57:02;10.10;99.90
24448;DHT22;13348;50.984;5.822;2024-02-23T13:59:32;9.50;99.90
24448;DHT22;13348;50.984;5.822;2024-02-23T14:01:59;9.40;99.90
24448;DHT22;13348;50.984;5.822;2024-02-23T14:04:26;9.60;99.90
24448;DHT22;13348;50.984;5.822;2024-02-23T14:06:53;10.00;99.90
24448;DHT22;13348;50.984;5.822;2024-02-23T14:09:20;9.90;99.90
24448;DHT22;13348;50.984;5.822;2024-02-23T14:11:48;9.80;99.90
24448;DHT22;13348;50.984;5.822;2024-02-23T14:14:15;9.60;99.90
24448;DHT22;13348;50.984;5.822;2024-02-23T14:16:42;9.50;99.90
24448;DHT22;13348;50.984;5.822;2024-02-23T14:19:09;9.30;99.90
24448;DHT22;13348;50.984;5.822;2024-02-23T14:21:36;9.20;99.90
24448;DHT22;13348;50.984;5.822;2024-02-23T14:24:03;9.20;99.90
24448;DHT22;13348;50.984;5.822;2024-02-23T14:26:30;9.30;99.90
24448;DHT22;13348;50.984;5.822;2024-02-23T14:29:00;9.40;99.90
24448;DHT22;13348;50.984;5.822;2024-02-23T14:31:27;9.30;99.90
24448;DHT22;13348;50.984;5.822;2024-02-23T14:33:54;9.10;99.90
24448;DHT22;13348;50.984;5.822;2024-02-23T14:36:21;9.10;99.90
24448;DHT22;13348;50.984;5.822;2024-02-23T14:38:49;9.20;99.90
24448;DHT22;13348;50.984;5.822;2024-02-23T14:41:16;9.20;99.90
24448;DHT22;13348;50.984;5.822;2024-02-23T14:43:43;9.10;99.90
24448;DHT22;13348;50.984;5.822;2024-02-23T14:46:12;9.20;99.90
24448;DHT22;13348;50.984;5.822;2024-02-23T14:48:39;9.10;99.90
24448;DHT22;13348;50.984;5.822;2024-02-23T14:51:05;9.10;99.90
24448;DHT22;13348;50.984;5.822;2024-02-23T14:53:34;9.10;99.90
24448;DHT22;13348;50.984;5.822;2024-02-23T14:56:02;9.30;99.90
24448;DHT22;13348;50.984;5.822;2024-02-23T14:58:28;9.80;99.90
24448;DHT22;13348;50.984;5.822;2024-02-23T15:00:55;9.50;99.90
24448;DHT22;13348;50.984;5.822;2024-02-23T15:03:24;9.30;99.90
24448;DHT22;13348;50.984;5.822;2024-02-23T15:05:51;9.10;99.90
24448;DHT22;13348;50.984;5.822;2024-02-23T15:08:18;9.10;99.90
24448;DHT22;13348;50.984;5.822;2024-02-23T15:10:45;9.10;99.90
24448;DHT22;13348;50.984;5.822;2024-02-23T15:13:12;9.00;99.90
24448;DHT22;13348;50.984;5.822;2024-02-23T15:15:39;8.90;99.90
24448;DHT22;13348;50.984;5.822;2024-02-23T15:18:07;9.00;99.90
24448;DHT22;13348;50.984;5.822;2024-02-23T15:20:36;8.90;99.90
24448;DHT22;13348;50.984;5.822;2024-02-23T15:23:03;8.80;99.90
24448;DHT22;13348;50.984;5.822;2024-02-23T15:25:30;8.80;99.90
24448;DHT22;13348;50.984;5.822;2024-02-23T15:27:58;8.70;99.90
24448;DHT22;13348;50.984;5.822;2024-02-23T15:30:25;8.80;99.90
24448;DHT22;13348;50.984;5.822;2024-02-23T15:32:52;8.80;99.90
24448;DHT22;13348;50.984;5.822;2024-02-23T15:35:19;8.60;99.90
24448;DHT22;13348;50.984;5.822;2024-02-23T15:37:47;8.70;99.90
24448;DHT22;13348;50.984;5.822;2024-02-23T15:40:14;8.60;99.90
24448;DHT22;13348;50.984;5.822;2024-02-23T15:42:41;8.70;99.90
24448;DHT22;13348;50.984;5.822;2024-02-23T15:45:08;8.70;99.90